createdAt,value
2018-12-31T00:00:00.235Z,98761.90
2018-12-31T00:02:27.199Z,98755.88
2018-12-31T00:04:54.172Z,98746.79
2018-12-31T00:07:21.169Z,98751.14
2018-12-31T00:09:48.713Z,98745.20
2018-12-31T00:12:15.652Z,98747.08
2018-12-31T00:14:42.582Z,98755.36
2018-12-31T00:17:09.551Z,98757.53
2018-12-31T00:19:36.487Z,98749.83
2018-12-31T00:22:03.504Z,98750.27
2018-12-31T00:24:30.481Z,98749.42
2018-12-31T00:26:57.879Z,98750.73
2018-12-31T00:29:25.291Z,98749.82
2018-12-31T00:31:52.750Z,98746.32
2018-12-31T00:34:20.137Z,98746.75
2018-12-31T00:36:47.545Z,98749.33
2018-12-31T00:39:14.939Z,98752.75
2018-12-31T00:41:42.360Z,98747.52
2018-12-31T00:44:09.841Z,98750.08
2018-12-31T00:46:37.236Z,98760.41
2018-12-31T00:49:04.633Z,98750.52
2018-12-31T00:51:32.053Z,98749.67
2018-12-31T00:53:59.451Z,98753.13
2018-12-31T00:56:26.915Z,98751.44
2018-12-31T00:58:54.313Z,98749.70
2018-12-31T01:01:21.706Z,98753.19
2018-12-31T01:03:49.115Z,98757.13
2018-12-31T01:06:17.092Z,98758.86
2018-12-31T01:08:44.505Z,98763.18
2018-12-31T01:11:11.916Z,98770.08
2018-12-31T01:13:39.317Z,98766.16
2018-12-31T01:16:06.724Z,98771.73
2018-12-31T01:18:34.121Z,98776.44
2018-12-31T01:21:01.525Z,98775.97
2018-12-31T01:23:28.920Z,98780.27
2018-12-31T01:25:56.370Z,98782.05
2018-12-31T01:28:23.779Z,98783.80
2018-12-31T01:30:51.187Z,98784.27
2018-12-31T01:33:18.601Z,98781.22
2018-12-31T01:35:45.999Z,98792.03
2018-12-31T01:38:13.572Z,98792.91
2018-12-31T01:40:40.981Z,98789.49
2018-12-31T01:43:08.601Z,98780.87
2018-12-31T01:45:36.209Z,98776.56
2018-12-31T01:48:03.651Z,98776.09
2018-12-31T01:50:31.063Z,98773.48
2018-12-31T01:52:58.479Z,98778.24
2018-12-31T01:55:25.892Z,98775.22
2018-12-31T01:57:53.279Z,98773.94
2018-12-31T02:00:20.695Z,98779.09
2018-12-31T02:02:48.264Z,98792.48
2018-12-31T02:05:15.658Z,98783.83
2018-12-31T02:07:43.073Z,98789.02
2018-12-31T02:10:10.471Z,98784.72
2018-12-31T02:12:37.889Z,98786.08
2018-12-31T02:15:05.308Z,98787.34
2018-12-31T02:17:32.702Z,98780.44
2018-12-31T02:20:00.170Z,98775.72
2018-12-31T02:22:27.655Z,98783.50
2018-12-31T02:24:55.056Z,98787.36
2018-12-31T02:27:22.463Z,98786.89
2018-12-31T02:29:49.893Z,98798.13
2018-12-31T02:32:17.294Z,98797.75
2018-12-31T02:34:44.688Z,98796.55
2018-12-31T02:37:12.083Z,98790.13
2018-12-31T02:39:39.524Z,98797.86
2018-12-31T02:42:06.920Z,98785.30
2018-12-31T02:44:34.326Z,98794.37
2018-12-31T02:47:01.882Z,98786.16
2018-12-31T02:49:29.366Z,98784.47
2018-12-31T02:51:56.776Z,98780.16
2018-12-31T02:54:24.193Z,98782.73
2018-12-31T02:56:51.610Z,98765.48
2018-12-31T02:59:19.000Z,98762.45
2018-12-31T03:01:46.429Z,98758.57
2018-12-31T03:04:13.841Z,98763.75
2018-12-31T03:06:41.246Z,98762.92
2018-12-31T03:09:08.650Z,98771.98
2018-12-31T03:11:36.458Z,98764.20
2018-12-31T03:14:04.529Z,98756.94
2018-12-31T03:16:31.925Z,98758.66
2018-12-31T03:18:59.374Z,98755.64
2018-12-31T03:21:26.780Z,98752.64
2018-12-31T03:23:54.455Z,98754.36
2018-12-31T03:26:21.868Z,98748.31
2018-12-31T03:28:49.267Z,98754.77
2018-12-31T03:31:16.683Z,98752.61
2018-12-31T03:33:44.094Z,98743.54
2018-12-31T03:36:11.487Z,98755.17
2018-12-31T03:38:38.445Z,98750.41
2018-12-31T03:41:05.394Z,98750.83
2018-12-31T03:43:33.258Z,98743.05
2018-12-31T03:46:00.250Z,98740.48
2018-12-31T03:48:28.299Z,98752.56
2018-12-31T03:50:55.726Z,98750.42
2018-12-31T03:53:22.707Z,98747.42
2018-12-31T03:55:50.397Z,98748.32
2018-12-31T03:58:17.521Z,98750.87
2018-12-31T04:00:44.521Z,98744.41
2018-12-31T04:03:11.954Z,98745.70
2018-12-31T04:05:39.363Z,98744.01
2018-12-31T04:08:06.760Z,98742.72
2018-12-31T04:10:34.209Z,98741.02
2018-12-31T04:13:01.619Z,98741.05
2018-12-31T04:15:29.055Z,98738.88
2018-12-31T04:17:56.021Z,98743.63
2018-12-31T04:20:23.452Z,98748.80
2018-12-31T04:22:50.837Z,98745.80
2018-12-31T04:25:18.246Z,98743.22
2018-12-31T04:27:45.641Z,98744.09
2018-12-31T04:30:14.634Z,98744.95
2018-12-31T04:32:42.068Z,98741.47
2018-12-31T04:35:09.130Z,98745.37
2018-12-31T04:37:36.075Z,98737.17
2018-12-31T04:40:03.058Z,98731.09
2018-12-31T04:42:30.020Z,98744.45
2018-12-31T04:44:57.111Z,98741.42
2018-12-31T04:47:24.528Z,98733.69
2018-12-31T04:52:20.321Z,98730.66
2018-12-31T04:54:47.372Z,98733.27
2018-12-31T04:57:14.920Z,98736.29
2018-12-31T04:59:41.887Z,98746.25
2018-12-31T05:02:08.980Z,98749.73
2018-12-31T05:04:36.026Z,98752.77
2018-12-31T05:07:03.424Z,98757.98
2018-12-31T05:09:30.851Z,98758.84
2018-12-31T05:11:58.243Z,98754.09
2018-12-31T05:14:25.648Z,98753.64
2018-12-31T05:16:53.310Z,98754.03
2018-12-31T05:19:20.735Z,98754.89
2018-12-31T05:21:48.137Z,98754.45
2018-12-31T05:24:15.550Z,98761.76
2018-12-31T05:26:43.031Z,98758.75
2018-12-31T05:29:10.443Z,98759.64
2018-12-31T05:31:37.850Z,98756.19
2018-12-31T05:34:05.303Z,98756.19
2018-12-31T05:36:33.372Z,98756.63
2018-12-31T05:39:00.780Z,98763.53
2018-12-31T05:41:28.195Z,98762.23
2018-12-31T05:43:55.591Z,98770.02
2018-12-31T05:46:23.024Z,98767.86
2018-12-31T05:48:50.436Z,98770.48
2018-12-31T05:51:17.840Z,98771.35
2018-12-31T05:53:45.383Z,98780.38
2018-12-31T05:56:12.779Z,98784.25
2018-12-31T05:58:40.191Z,98774.33
2018-12-31T06:01:07.586Z,98784.25
2018-12-31T06:03:34.998Z,98777.78
2018-12-31T06:06:02.455Z,98788.97
2018-12-31T06:08:29.829Z,98781.20
2018-12-31T06:10:57.257Z,98792.84
2018-12-31T06:15:58.631Z,98795.86
2018-12-31T06:18:26.050Z,98795.86
2018-12-31T06:20:53.441Z,98795.86
2018-12-31T06:23:21.797Z,98792.41
2018-12-31T06:25:49.220Z,98794.97
2018-12-31T06:28:16.620Z,98797.58
2018-12-31T06:30:44.023Z,98799.30
2018-12-31T06:33:11.429Z,98804.46
2018-12-31T06:35:38.847Z,98808.78
2018-12-31T06:38:06.362Z,98801.91
2018-12-31T06:40:33.961Z,98800.62
2018-12-31T06:43:01.440Z,98808.80
2018-12-31T06:45:28.831Z,98811.37
2018-12-31T06:47:56.229Z,98807.94
2018-12-31T06:50:23.700Z,98810.95
2018-12-31T06:52:51.101Z,98819.59
2018-12-31T06:55:18.495Z,98817.43
2018-12-31T06:57:45.883Z,98819.13
2018-12-31T07:00:13.494Z,98816.12
2018-12-31T07:02:40.891Z,98810.55
2018-12-31T07:05:08.323Z,98821.73
2018-12-31T07:07:35.727Z,98820.02
2018-12-31T07:10:03.143Z,98817.88
2018-12-31T07:12:30.546Z,98804.50
2018-12-31T07:14:58.012Z,98807.95
2018-12-31T07:17:25.458Z,98812.27
2018-12-31T07:19:52.872Z,98807.52
2018-12-31T07:22:20.327Z,98805.78
2018-12-31T07:24:47.703Z,98797.17
2018-12-31T07:27:15.103Z,98799.77
2018-12-31T07:29:42.559Z,98800.62
2018-12-31T07:32:10.069Z,98808.38
2018-12-31T07:34:37.471Z,98806.22
2018-12-31T07:37:05.142Z,98804.50
2018-12-31T07:39:32.568Z,98805.37
2018-12-31T07:41:59.976Z,98803.21
2018-12-31T07:44:27.411Z,98810.08
2018-12-31T07:46:54.883Z,98810.05
2018-12-31T07:49:23.053Z,98808.74
2018-12-31T07:51:50.499Z,98799.67
2018-12-31T07:54:17.953Z,98804.01
2018-12-31T07:56:45.363Z,98804.42
2018-12-31T07:59:12.768Z,98804.02
2018-12-31T08:01:40.187Z,98798.00
2018-12-31T08:04:07.615Z,98795.44
2018-12-31T08:06:35.033Z,98801.04
2018-12-31T08:09:03.182Z,98801.47
2018-12-31T08:11:31.505Z,98802.74
2018-12-31T08:13:58.908Z,98808.34
2018-12-31T08:16:26.309Z,98791.98
2018-12-31T08:18:53.752Z,98800.16
2018-12-31T08:21:21.190Z,98806.14
2018-12-31T08:23:48.601Z,98796.16
2018-12-31T08:26:15.993Z,98796.97
2018-12-31T08:28:43.458Z,98799.92
2018-12-31T08:31:10.865Z,98793.77
2018-12-31T08:33:38.306Z,98802.25
2018-12-31T08:36:05.723Z,98795.70
2018-12-31T08:38:33.171Z,98798.42
2018-12-31T08:41:00.580Z,98805.28
2018-12-31T08:43:28.443Z,98799.98
2018-12-31T08:45:55.851Z,98796.98
2018-12-31T08:48:23.255Z,98794.79
2018-12-31T08:50:50.723Z,98800.88
2018-12-31T08:53:18.176Z,98810.22
2018-12-31T08:55:45.585Z,98817.39
2018-12-31T08:58:13.084Z,98809.64
2018-12-31T09:00:40.490Z,98809.83
2018-12-31T09:03:07.912Z,98806.81
2018-12-31T09:05:35.415Z,98811.14
2018-12-31T09:08:02.812Z,98812.69
2018-12-31T09:10:30.232Z,98813.97
2018-12-31T09:12:57.678Z,98814.14
2018-12-31T09:15:25.080Z,98821.08
2018-12-31T09:17:52.085Z,98817.90
2018-12-31T09:20:19.120Z,98810.85
2018-12-31T09:22:46.101Z,98821.00
2018-12-31T09:25:13.941Z,98826.33
2018-12-31T09:30:13.406Z,98825.14
2018-12-31T09:32:40.548Z,98824.95
2018-12-31T09:35:08.286Z,98832.11
2018-12-31T09:37:35.881Z,98827.13
2018-12-31T09:40:04.087Z,98825.05
2018-12-31T09:42:31.500Z,98828.38
2018-12-31T09:44:58.901Z,98829.13
2018-12-31T09:47:26.352Z,98829.32
2018-12-31T09:49:53.759Z,98824.95
2018-12-31T09:52:21.584Z,98823.45
2018-12-31T09:54:48.991Z,98833.24
2018-12-31T09:57:15.939Z,98824.09
2018-12-31T09:59:43.395Z,98818.48
2018-12-31T10:02:10.809Z,98817.74
2018-12-31T10:04:38.212Z,98810.33
2018-12-31T10:07:05.153Z,98800.75
2018-12-31T10:09:32.098Z,98789.92
2018-12-31T10:11:59.042Z,98788.99
2018-12-31T10:14:26.109Z,98788.28
2018-12-31T10:16:53.063Z,98785.40
2018-12-31T10:19:20.194Z,98789.17
2018-12-31T10:21:47.128Z,98779.03
2018-12-31T10:24:14.128Z,98766.70
2018-12-31T10:26:41.097Z,98753.95
2018-12-31T10:29:08.058Z,98760.70
2018-12-31T10:31:35.034Z,98756.83
2018-12-31T10:34:01.987Z,98759.69
2018-12-31T10:36:28.968Z,98749.05
2018-12-31T10:38:56.653Z,98749.57
2018-12-31T10:41:23.649Z,98750.87
2018-12-31T10:43:51.063Z,98746.02
2018-12-31T10:46:18.476Z,98747.67
2018-12-31T10:48:45.886Z,98740.52
2018-12-31T10:51:13.299Z,98737.21
2018-12-31T10:53:40.877Z,98735.06
2018-12-31T10:56:08.367Z,98727.66
2018-12-31T10:58:36.147Z,98723.98
2018-12-31T11:01:03.633Z,98723.97
2018-12-31T11:03:31.093Z,98723.80
2018-12-31T11:05:58.623Z,98719.67
2018-12-31T11:08:26.573Z,98710.03
2018-12-31T11:10:53.987Z,98706.05
2018-12-31T11:13:21.425Z,98703.94
2018-12-31T11:15:48.839Z,98702.53
2018-12-31T11:18:16.247Z,98700.55
2018-12-31T11:20:43.896Z,98699.48
2018-12-31T11:23:10.851Z,98700.05
2018-12-31T11:25:37.921Z,98697.91
2018-12-31T11:28:04.870Z,98688.28
2018-12-31T11:30:31.854Z,98686.27
2018-12-31T11:32:58.800Z,98685.74
2018-12-31T11:35:25.850Z,98673.82
2018-12-31T11:37:52.840Z,98660.35
2018-12-31T11:40:19.831Z,98668.06
2018-12-31T11:42:46.803Z,98668.87
2018-12-31T11:45:13.809Z,98657.05
2018-12-31T11:47:40.782Z,98650.08
2018-12-31T11:50:07.855Z,98646.38
2018-12-31T11:52:34.796Z,98640.31
2018-12-31T11:55:03.469Z,98638.80
2018-12-31T11:57:28.820Z,98640.66
2018-12-31T11:59:57.515Z,98639.69
2018-12-31T12:02:24.559Z,98642.66
2018-12-31T12:04:52.004Z,98641.91
2018-12-31T12:07:19.229Z,98634.68
2018-12-31T12:11:15.495Z,98628.77
2018-12-31T12:13:42.467Z,98624.54
2018-12-31T12:16:09.623Z,98622.86
2018-12-31T12:18:36.698Z,98617.05
2018-12-31T12:21:04.114Z,98611.66
2018-12-31T12:23:31.758Z,98608.55
2018-12-31T12:25:59.187Z,98617.77
2018-12-31T12:28:26.605Z,98601.91
2018-12-31T12:30:54.020Z,98601.88
2018-12-31T12:33:21.426Z,98587.63
2018-12-31T12:35:48.833Z,98581.94
2018-12-31T12:38:15.834Z,98588.13
2018-12-31T12:40:42.794Z,98590.02
2018-12-31T12:43:10.246Z,98594.46
2018-12-31T12:45:37.658Z,98595.88
2018-12-31T12:48:05.288Z,98596.53
2018-12-31T12:50:32.714Z,98584.30
2018-12-31T12:53:00.136Z,98586.31
2018-12-31T12:55:27.557Z,98585.25
2018-12-31T12:57:55.966Z,98592.11
2018-12-31T13:00:23.703Z,98579.17
2018-12-31T13:02:52.724Z,98573.28
2018-12-31T13:05:20.270Z,98576.89
2018-12-31T13:07:49.140Z,98566.66
2018-12-31T13:10:17.449Z,98569.45
2018-12-31T13:12:44.737Z,98573.68
2018-12-31T13:15:11.841Z,98569.80
2018-12-31T13:17:39.424Z,98568.08
2018-12-31T13:20:06.965Z,98556.56
2018-12-31T13:22:34.574Z,98563.48
2018-12-31T13:25:02.047Z,98563.59
2018-12-31T13:27:29.923Z,98557.92
2018-12-31T13:29:57.396Z,98560.25
2018-12-31T13:32:24.959Z,98562.97
2018-12-31T13:34:52.549Z,98556.22
2018-12-31T13:37:20.079Z,98560.33
2018-12-31T13:39:49.142Z,98568.16
2018-12-31T13:42:17.940Z,98564.25
2018-12-31T13:44:45.510Z,98566.08
2018-12-31T13:47:13.151Z,98562.84
2018-12-31T13:49:40.623Z,98562.24
2018-12-31T13:52:08.271Z,98563.84
2018-12-31T13:54:35.762Z,98573.07
2018-12-31T13:57:03.315Z,98568.98
2018-12-31T13:59:30.833Z,98573.34
2018-12-31T14:01:58.423Z,98575.48
2018-12-31T14:04:29.056Z,98570.25
2018-12-31T14:06:56.720Z,98572.12
2018-12-31T14:09:24.301Z,98574.02
2018-12-31T14:11:52.878Z,98567.41
2018-12-31T14:14:21.622Z,98570.73
2018-12-31T14:16:49.137Z,98564.95
2018-12-31T14:19:17.010Z,98570.04
2018-12-31T14:21:44.548Z,98567.82
2018-12-31T14:24:12.283Z,98573.84
2018-12-31T14:26:39.816Z,98578.14
2018-12-31T14:29:10.551Z,98579.50
2018-12-31T14:31:38.046Z,98573.42
2018-12-31T14:34:05.602Z,98574.77
2018-12-31T14:36:33.817Z,98575.94
2018-12-31T14:39:01.446Z,98564.58
2018-12-31T14:41:29.043Z,98571.91
2018-12-31T14:43:56.461Z,98561.86
2018-12-31T14:46:24.125Z,98563.67
2018-12-31T14:48:51.609Z,98572.03
2018-12-31T14:51:19.343Z,98575.31
2018-12-31T14:53:46.998Z,98575.31
2018-12-31T14:56:14.507Z,98577.62
2018-12-31T14:58:42.327Z,98577.39
2018-12-31T15:01:09.758Z,98577.97
2018-12-31T15:03:37.325Z,98569.97
2018-12-31T15:06:04.807Z,98573.55
2018-12-31T15:08:32.399Z,98572.23
2018-12-31T15:10:59.921Z,98574.27
2018-12-31T15:16:00.497Z,98571.38
2018-12-31T15:18:29.335Z,98574.08
2018-12-31T15:20:56.923Z,98577.16
2018-12-31T15:23:24.961Z,98575.42
2018-12-31T15:25:52.620Z,98573.30
2018-12-31T15:28:20.119Z,98571.39
2018-12-31T15:30:47.617Z,98576.13
2018-12-31T15:33:15.246Z,98583.39
2018-12-31T15:35:42.797Z,98581.05
2018-12-31T15:38:10.317Z,98576.44
2018-12-31T15:40:38.094Z,98574.58
2018-12-31T15:43:05.691Z,98571.34
2018-12-31T15:45:33.358Z,98570.08
2018-12-31T15:48:01.222Z,98579.09
2018-12-31T15:50:28.721Z,98575.86
2018-12-31T15:52:56.238Z,98582.53
2018-12-31T15:55:23.801Z,98576.99
2018-12-31T15:57:51.286Z,98581.87
2018-12-31T16:00:18.896Z,98581.73
2018-12-31T16:02:46.369Z,98581.48
2018-12-31T16:05:13.994Z,98573.82
2018-12-31T16:07:45.744Z,98579.16
2018-12-31T16:10:09.831Z,98581.73
2018-12-31T16:12:37.341Z,98586.18
2018-12-31T16:15:04.788Z,98578.91
2018-12-31T16:17:33.038Z,98579.36
2018-12-31T16:20:00.915Z,98580.73
2018-12-31T16:22:28.672Z,98586.36
2018-12-31T16:24:59.239Z,98586.84
2018-12-31T16:27:26.715Z,98580.70
2018-12-31T16:29:54.160Z,98587.38
2018-12-31T16:32:21.810Z,98582.68
2018-12-31T16:34:49.382Z,98580.88
2018-12-31T16:37:17.009Z,98582.81
2018-12-31T16:39:44.478Z,98581.13
2018-12-31T16:42:11.943Z,98587.23
2018-12-31T16:44:39.489Z,98586.34
2018-12-31T16:47:07.076Z,98588.22
2018-12-31T16:49:34.640Z,98590.25
2018-12-31T16:52:02.723Z,98595.25
2018-12-31T16:54:30.429Z,98596.66
2018-12-31T16:56:57.926Z,98595.02
2018-12-31T16:59:25.493Z,98598.52
2018-12-31T17:01:52.965Z,98600.27
2018-12-31T17:04:20.573Z,98601.22
2018-12-31T17:06:48.128Z,98600.83
2018-12-31T17:09:15.619Z,98607.42
2018-12-31T17:11:43.842Z,98601.31
2018-12-31T17:14:11.404Z,98605.36
2018-12-31T17:16:39.910Z,98601.94
2018-12-31T17:19:07.471Z,98604.19
2018-12-31T17:21:35.643Z,98602.45
2018-12-31T17:24:03.154Z,98604.64
2018-12-31T17:26:30.697Z,98599.72
2018-12-31T17:28:58.251Z,98607.03
2018-12-31T17:31:25.880Z,98601.38
2018-12-31T17:33:54.464Z,98610.19
2018-12-31T17:36:21.999Z,98611.59
2018-12-31T17:38:50.978Z,98614.72
2018-12-31T17:41:19.491Z,98611.36
2018-12-31T17:43:47.153Z,98611.78
2018-12-31T17:46:15.738Z,98614.45
2018-12-31T17:48:43.352Z,98615.42
2018-12-31T17:51:12.939Z,98620.41
2018-12-31T17:53:41.099Z,98626.30
2018-12-31T17:56:09.346Z,98627.86
2018-12-31T17:58:37.868Z,98625.38
2018-12-31T18:01:05.384Z,98625.12
2018-12-31T18:03:33.093Z,98624.73
2018-12-31T18:06:01.787Z,98625.72
2018-12-31T18:08:29.376Z,98625.78
2018-12-31T18:10:57.056Z,98625.81
2018-12-31T18:13:27.546Z,98633.80
2018-12-31T18:15:55.041Z,98638.64
2018-12-31T18:18:23.409Z,98631.79
2018-12-31T18:20:51.941Z,98633.70
2018-12-31T18:23:20.614Z,98634.27
2018-12-31T18:25:48.084Z,98647.33
2018-12-31T18:28:15.557Z,98651.00
2018-12-31T18:30:43.152Z,98648.93
2018-12-31T18:33:10.572Z,98647.30
2018-12-31T18:35:37.623Z,98659.86
2018-12-31T18:38:04.639Z,98666.40
2018-12-31T18:40:31.627Z,98659.03
2018-12-31T18:42:58.753Z,98664.64
2018-12-31T18:45:26.381Z,98670.62
2018-12-31T18:47:53.548Z,98660.61
2018-12-31T18:50:20.611Z,98670.84
2018-12-31T18:52:47.632Z,98667.70
2018-12-31T18:55:15.216Z,98660.39
2018-12-31T18:57:42.719Z,98660.42
2018-12-31T19:00:10.347Z,98659.20
2018-12-31T19:02:37.410Z,98670.10
2018-12-31T19:05:04.994Z,98665.55
2018-12-31T19:07:32.439Z,98663.38
2018-12-31T19:10:00.268Z,98669.06
2018-12-31T19:12:27.749Z,98668.72
2018-12-31T19:14:55.319Z,98662.04
2018-12-31T19:17:23.044Z,98660.82
2018-12-31T19:19:50.708Z,98665.41
2018-12-31T19:22:18.294Z,98657.48
2018-12-31T19:24:45.885Z,98660.52
2018-12-31T19:27:14.924Z,98660.09
2018-12-31T19:29:42.391Z,98662.70
2018-12-31T19:32:10.005Z,98672.25
2018-12-31T19:34:37.527Z,98667.06
2018-12-31T19:37:05.054Z,98661.00
2018-12-31T19:39:35.359Z,98656.16
2018-12-31T19:42:02.868Z,98658.25
2018-12-31T19:44:29.954Z,98662.28
2018-12-31T19:46:57.051Z,98664.01
2018-12-31T19:49:24.531Z,98667.41
2018-12-31T19:51:52.181Z,98670.05
2018-12-31T19:54:19.764Z,98666.14
2018-12-31T19:56:47.431Z,98666.50
2018-12-31T19:59:14.953Z,98663.08
2018-12-31T20:01:43.453Z,98664.86
2018-12-31T20:04:11.008Z,98670.63
2018-12-31T20:06:38.490Z,98671.80
2018-12-31T20:09:06.024Z,98664.21
2018-12-31T20:11:34.781Z,98662.00
2018-12-31T20:14:02.321Z,98658.55
2018-12-31T20:16:29.837Z,98666.45
2018-12-31T20:18:57.754Z,98660.78
2018-12-31T20:21:25.290Z,98659.39
2018-12-31T20:23:54.247Z,98661.63
2018-12-31T20:26:22.368Z,98658.73
2018-12-31T20:28:50.063Z,98663.12
2018-12-31T20:31:18.136Z,98658.77
2018-12-31T20:33:46.800Z,98657.94
2018-12-31T20:36:14.483Z,98664.21
2018-12-31T20:38:42.204Z,98664.58
2018-12-31T20:41:10.582Z,98661.60
2018-12-31T20:43:39.975Z,98658.14
2018-12-31T20:46:07.484Z,98662.09
2018-12-31T20:48:35.435Z,98664.72
2018-12-31T20:51:02.997Z,98663.84
2018-12-31T20:53:31.972Z,98658.17
2018-12-31T20:55:59.541Z,98659.98
2018-12-31T20:58:31.611Z,98654.69
2018-12-31T21:01:03.906Z,98661.00
2018-12-31T21:03:31.458Z,98658.84
2018-12-31T21:06:03.183Z,98657.06
2018-12-31T21:08:32.752Z,98653.84
2018-12-31T21:11:02.032Z,98655.80
2018-12-31T21:13:29.665Z,98644.74
2018-12-31T21:15:58.173Z,98637.63
2018-12-31T21:18:32.359Z,98643.48
2018-12-31T21:21:02.379Z,98647.77
2018-12-31T21:23:34.339Z,98647.25
2018-12-31T21:26:03.158Z,98648.16
2018-12-31T21:28:34.702Z,98656.53
2018-12-31T21:31:06.654Z,98647.40
2018-12-31T21:33:35.175Z,98651.37
2018-12-31T21:36:06.465Z,98648.31
2018-12-31T21:38:35.068Z,98646.52
2018-12-31T21:41:04.252Z,98648.62
2018-12-31T21:43:33.985Z,98648.62
2018-12-31T21:46:02.224Z,98650.44
2018-12-31T21:48:35.364Z,98647.94
2018-12-31T21:51:04.009Z,98653.58
2018-12-31T21:53:34.560Z,98651.83
2018-12-31T21:56:03.696Z,98658.29
2018-12-31T21:58:31.668Z,98653.38
2018-12-31T22:00:59.799Z,98656.44
2018-12-31T22:03:27.562Z,98650.83
2018-12-31T22:05:55.355Z,98655.08
2018-12-31T22:08:23.085Z,98659.75
2018-12-31T22:10:52.169Z,98659.21
2018-12-31T22:13:19.940Z,98654.56
2018-12-31T22:15:47.539Z,98652.47
2018-12-31T22:18:15.027Z,98644.50
2018-12-31T22:20:42.489Z,98646.25
2018-12-31T22:23:10.006Z,98648.92
2018-12-31T22:25:37.576Z,98645.04
2018-12-31T22:28:05.216Z,98648.30
2018-12-31T22:30:32.724Z,98646.16
2018-12-31T22:33:00.236Z,98641.77
2018-12-31T22:35:28.068Z,98644.87
2018-12-31T22:37:55.647Z,98650.91
2018-12-31T22:40:22.700Z,98649.25
2018-12-31T22:42:49.752Z,98649.16
2018-12-31T22:45:17.400Z,98641.70
2018-12-31T22:47:44.977Z,98641.55
2018-12-31T22:50:12.685Z,98649.74
2018-12-31T22:52:40.506Z,98652.30
2018-12-31T22:55:08.005Z,98646.59
2018-12-31T22:57:37.915Z,98645.25
2018-12-31T23:00:05.847Z,98653.63
2018-12-31T23:02:33.497Z,98647.73
2018-12-31T23:05:01.165Z,98648.80
2018-12-31T23:07:28.640Z,98653.52
2018-12-31T23:09:56.386Z,98658.20
2018-12-31T23:12:23.990Z,98652.86
2018-12-31T23:14:51.689Z,98655.96
2018-12-31T23:17:20.884Z,98653.78
2018-12-31T23:19:49.665Z,98654.23
2018-12-31T23:22:20.593Z,98659.47
2018-12-31T23:24:53.183Z,98654.66
2018-12-31T23:27:20.773Z,98651.25
2018-12-31T23:29:48.290Z,98645.95
2018-12-31T23:32:16.028Z,98645.89
2018-12-31T23:34:43.515Z,98649.86
2018-12-31T23:37:11.053Z,98647.73
2018-12-31T23:39:38.842Z,98652.50
2018-12-31T23:42:06.548Z,98651.66
2018-12-31T23:44:34.237Z,98644.22
2018-12-31T23:47:02.112Z,98650.69
2018-12-31T23:49:29.654Z,98649.59
2018-12-31T23:51:57.963Z,98648.66
2018-12-31T23:54:25.443Z,98644.83
2018-12-31T23:56:54.093Z,98648.20
2018-12-31T23:59:21.566Z,98650.30
